Cincinnati, OH

9:26 AM EST on November 27, 2014 (GMT -0500)
Cleves | Change Station
CLOSE
Current Station
Personal Weather Station
Location: Cleves, OH
Elevation: 719 ft
Nearby Weather Stations

Elev 719 ft 39.21 °N, 84.69 °W | Updated 5 minutes ago

Overcast
Overcast
30.5 °F
Feels Like 30 °F
N
0.0
Wind Variable Wind from SW
Gusts 4.0 mph

Today
High -- | Low -- °F
--% Chance of Precip.
Yesterday
High -- | Low -- °F
Precip. -- in
7:35 AM 5:17 PM
Waxing Crescent, 30% visible
Pressure 30.25 in
Visibility 8.0 miles
Clouds Overcast 3200 ft
Windchill 30 °F
Dew Point 25 °F
Humidity 80%
Rainfall 0.00 in
Snow Depth Not available.
UV 0 out of 12
Pollen .10 out of 12
Air Quality Not available.
Flu Activity Not available.
METAR KCVG 271352Z 31009G17KT 8SM OVC032 M01/M07 A3023 RMK AO2 SLP242 T10111067

More Conditions Fewer Conditions

Pressure 30.25 in
Visibility 8.0 miles
Clouds Overcast 3200 ft
Windchill 30 °F
Dew Point 25 °F
Humidity 80%
Rainfall 0.00 in
Snow Depth Not available.
UV 0 out of 12
Pollen .10 out of 12
Air Quality Not available.
Flu Activity Not available.
METAR KCVG 271352Z 31009G17KT 8SM OVC032 M01/M07 A3023 RMK AO2 SLP242 T10111067

More Conditions Fewer Conditions

10-Day Weather Forecast

Almanac

Astronomy

Nov. 27, 2014 Rise Set
Actual Time
Civil Twilight
Nautical Twilight
Astronomical Twilight
Moon
Length of Visible Light
Length of Day
Tomorrow will be .
, % of the Moon is Illuminated

Today's Extremes

State Highs State Lows

Community

WunderPhotos

Upload Photos

1,774,005 photos uploaded!

WunderBlogs® & News

Nearby

Air Quality

  Air Quality AQ Index Pollutant
Not available.

Snow Depth

Station Depth Elevation

Earthquake Activity

City Distance Mag. Time & Date
Minimum magnitude displayed is 2.5.

Coastal Water Temperatures

Place Temperature

Nearby Weather Stations